Terminal Aerodrome Forecast
Issued by NWS

Current Version | Previous Version | Text Only | Print | Product List | Glossary On
Versions: 1 2 3 4 5 6 7 8 9 10 11 12 13 14 15 16 17 18 19 20 21 22
000
FTUS41 KBTV 021000 CCA
TAFMPV
TAF COR
KMPV 021010Z 0210/0306 VRB03KT 2SM BR SCT002
      TEMPO 0210/0212 1SM BR BKN002
     FM021200 19012KT P6SM SCT040
     FM022300 19012KT 5SM -TSRA BKN035CB
     FM030200 25005KT P6SM BKN035=

USA.gov is the U.S. government's official web portal to all federal, state and local government web resources and services.